createdAt,value
2017-08-30T00:01:35.976Z,17.80
2017-08-30T00:04:02.604Z,14.03
2017-08-30T00:06:29.252Z,20.10
2017-08-30T00:08:55.688Z,12.63
2017-08-30T00:11:22.324Z,14.13
2017-08-30T00:13:48.950Z,13.37
2017-08-30T00:16:15.543Z,15.50
2017-08-30T00:18:42.235Z,15.50
2017-08-30T00:21:08.728Z,14.07
2017-08-30T00:23:35.516Z,12.03
2017-08-30T00:26:02.153Z,11.43
2017-08-30T00:28:28.704Z,22.30
2017-08-30T00:30:55.430Z,15.77
2017-08-30T00:33:22.057Z,14.90
2017-08-30T00:35:48.555Z,15.50
2017-08-30T00:38:15.343Z,16.47
2017-08-30T00:40:41.961Z,14.10
2017-08-30T00:43:08.620Z,15.23
2017-08-30T00:45:35.261Z,18.00
2017-08-30T00:48:01.889Z,14.73
2017-08-30T00:50:28.387Z,15.00
2017-08-30T00:52:54.947Z,13.57
2017-08-30T00:55:21.395Z,13.87
2017-08-30T00:57:47.884Z,12.27
2017-08-30T01:00:14.423Z,11.87
2017-08-30T01:02:41.111Z,10.87
2017-08-30T01:05:07.732Z,13.17
2017-08-30T01:07:34.348Z,11.43
2017-08-30T01:10:00.846Z,12.40
2017-08-30T01:12:27.433Z,12.07
2017-08-30T01:14:54.053Z,12.63
2017-08-30T01:17:20.534Z,15.10
2017-08-30T01:19:47.015Z,15.90
2017-08-30T01:22:13.580Z,13.43
2017-08-30T01:24:40.241Z,12.83
2017-08-30T01:27:06.858Z,13.50
2017-08-30T01:29:33.302Z,13.40
2017-08-30T01:31:59.848Z,13.20
2017-08-30T01:34:26.459Z,14.10
2017-08-30T01:36:53.083Z,14.87
2017-08-30T01:39:19.744Z,13.70
2017-08-30T01:41:46.264Z,14.10
2017-08-30T01:44:12.881Z,15.40
2017-08-30T01:46:39.324Z,16.70
2017-08-30T01:49:05.766Z,13.40
2017-08-30T01:51:32.127Z,15.17
2017-08-30T01:53:58.747Z,12.43
2017-08-30T01:56:25.409Z,11.70
2017-08-30T01:58:52.049Z,14.17
2017-08-30T02:01:18.671Z,14.00
2017-08-30T02:03:45.114Z,10.93
2017-08-30T02:06:11.706Z,13.70
2017-08-30T02:08:38.396Z,11.80
2017-08-30T02:11:05.033Z,12.10
2017-08-30T02:13:31.632Z,12.97
2017-08-30T02:15:58.103Z,11.77
2017-08-30T02:18:24.537Z,12.30
2017-08-30T02:20:51.131Z,13.53
2017-08-30T02:23:17.798Z,11.97
2017-08-30T02:25:44.453Z,11.97
2017-08-30T02:28:11.033Z,13.60
2017-08-30T02:30:37.729Z,12.73
2017-08-30T02:33:04.220Z,12.07
2017-08-30T02:35:31.006Z,11.43
2017-08-30T02:37:57.600Z,9.63
2017-08-30T02:40:24.146Z,11.70
2017-08-30T02:42:50.920Z,9.53
2017-08-30T02:45:17.551Z,9.60
2017-08-30T02:47:44.196Z,9.23
2017-08-30T02:50:10.835Z,9.93
2017-08-30T02:52:37.381Z,7.80
2017-08-30T02:55:04.094Z,9.67
2017-08-30T02:57:30.687Z,9.63
2017-08-30T02:59:57.354Z,8.60
2017-08-30T03:02:23.996Z,9.00
2017-08-30T03:04:50.612Z,10.03
2017-08-30T03:07:17.280Z,10.67
2017-08-30T03:09:43.797Z,12.83
2017-08-30T03:12:10.581Z,12.87
2017-08-30T03:14:37.184Z,8.67
2017-08-30T03:17:03.649Z,8.93
2017-08-30T03:19:30.239Z,9.50
2017-08-30T03:21:56.905Z,8.00
2017-08-30T03:24:23.562Z,8.70
2017-08-30T03:26:49.992Z,8.00
2017-08-30T03:29:16.484Z,7.73
2017-08-30T03:31:42.925Z,9.83
2017-08-30T03:34:09.325Z,9.90
2017-08-30T03:36:35.725Z,6.97
2017-08-30T03:39:02.356Z,8.73
2017-08-30T03:41:28.968Z,11.93
2017-08-30T03:43:55.634Z,9.50
2017-08-30T03:46:22.128Z,9.10
2017-08-30T03:48:48.509Z,12.80
2017-08-30T03:51:14.811Z,11.27
2017-08-30T03:53:41.252Z,14.10
2017-08-30T03:56:07.871Z,13.10
2017-08-30T03:58:34.313Z,10.63
2017-08-30T04:01:00.851Z,10.53
2017-08-30T04:03:27.371Z,12.27
2017-08-30T04:05:53.912Z,17.53
2017-08-30T04:08:20.588Z,10.97
2017-08-30T04:10:47.232Z,10.27
2017-08-30T04:13:13.862Z,9.97
2017-08-30T04:15:40.356Z,11.23
2017-08-30T04:18:06.896Z,10.43
2017-08-30T04:20:33.366Z,9.93
2017-08-30T04:23:00.012Z,9.83
2017-08-30T04:25:26.596Z,8.30
2017-08-30T04:27:53.263Z,7.33
2017-08-30T04:30:19.920Z,7.93
2017-08-30T04:32:46.547Z,8.57
2017-08-30T04:35:12.849Z,8.80
2017-08-30T04:37:39.407Z,7.40
2017-08-30T04:40:06.075Z,8.50
2017-08-30T04:42:32.708Z,6.63
2017-08-30T04:44:59.332Z,7.13
2017-08-30T04:47:25.776Z,7.00
2017-08-30T04:49:52.386Z,6.50
2017-08-30T04:52:19.055Z,8.00
2017-08-30T04:54:45.659Z,10.00
2017-08-30T04:57:12.338Z,7.13
2017-08-30T04:59:38.808Z,5.60
2017-08-30T05:02:05.350Z,5.83
2017-08-30T06:20:25.306Z,4.43
2017-08-30T06:22:51.792Z,2.70
2017-08-30T06:25:18.158Z,4.70
2017-08-30T06:27:45.014Z,3.80
2017-08-30T06:30:11.430Z,3.00
2017-08-30T06:32:37.869Z,4.40
2017-08-30T06:35:04.513Z,32.03
2017-08-30T06:37:31.001Z,4.37
2017-08-30T06:39:57.641Z,4.77
2017-08-30T06:42:24.325Z,4.67
2017-08-30T06:44:50.948Z,3.60
2017-08-30T06:47:17.444Z,8.33
2017-08-30T06:49:44.239Z,3.73
2017-08-30T06:52:10.671Z,4.10
2017-08-30T06:54:37.309Z,4.07
2017-08-30T06:57:03.948Z,3.80
2017-08-30T06:59:30.589Z,3.80
2017-08-30T07:01:57.220Z,3.27
2017-08-30T07:04:23.811Z,3.30
2017-08-30T07:06:50.500Z,3.77
2017-08-30T07:09:16.998Z,3.47
2017-08-30T07:11:43.776Z,4.50
2017-08-30T07:14:10.406Z,3.40
2017-08-30T07:16:36.899Z,5.47
2017-08-30T07:19:03.437Z,4.30
2017-08-30T07:21:30.126Z,3.37
2017-08-30T07:23:56.766Z,4.23
2017-08-30T07:26:23.398Z,4.43
2017-08-30T07:28:50.009Z,4.70
2017-08-30T07:31:16.652Z,3.57
2017-08-30T07:33:43.268Z,4.97
2017-08-30T07:36:09.747Z,4.63
2017-08-30T07:38:36.176Z,5.60
2017-08-30T07:41:02.776Z,4.90
2017-08-30T07:43:29.457Z,7.53
2017-08-30T07:45:56.096Z,5.60
2017-08-30T07:48:22.723Z,4.60
2017-08-30T07:50:49.217Z,5.70
2017-08-30T07:53:15.661Z,6.53
2017-08-30T07:55:42.308Z,5.47
2017-08-30T07:58:09.070Z,5.77
2017-08-30T08:00:35.589Z,7.43
2017-08-30T08:03:02.328Z,6.23
2017-08-30T08:05:28.997Z,5.60
2017-08-30T08:07:55.463Z,6.70
2017-08-30T08:10:22.030Z,6.17
2017-08-30T08:12:48.707Z,6.20
2017-08-30T08:15:15.339Z,5.90
2017-08-30T08:17:41.932Z,6.30
2017-08-30T08:20:08.478Z,4.80
2017-08-30T08:22:35.242Z,4.90
2017-08-30T08:25:01.838Z,4.60
2017-08-30T08:27:28.534Z,5.00
2017-08-30T08:29:55.168Z,4.50
2017-08-30T08:32:22.017Z,3.60
2017-08-30T08:34:48.447Z,4.40
2017-08-30T08:37:14.948Z,4.23
2017-08-30T08:39:41.724Z,4.10
2017-08-30T08:42:08.339Z,4.73
2017-08-30T08:44:34.849Z,4.37
2017-08-30T08:47:01.491Z,3.93
2017-08-30T08:49:28.031Z,4.23
2017-08-30T08:51:54.577Z,4.60
2017-08-30T08:54:21.315Z,5.20
2017-08-30T08:56:47.835Z,4.13
2017-08-30T08:59:14.281Z,4.80
2017-08-30T09:01:41.058Z,13.80
2017-08-30T09:04:07.659Z,9.80
2017-08-30T09:06:34.180Z,4.23
2017-08-30T09:09:00.974Z,6.00
2017-08-30T09:11:27.588Z,3.93
2017-08-30T09:13:54.107Z,4.10
2017-08-30T09:16:20.875Z,3.93
2017-08-30T09:18:47.524Z,4.10
2017-08-30T09:21:13.834Z,4.53
2017-08-30T09:23:40.575Z,4.50
2017-08-30T09:26:07.066Z,4.30
2017-08-30T09:28:33.512Z,4.47
2017-08-30T09:30:59.896Z,3.87
2017-08-30T09:33:26.518Z,3.93
2017-08-30T09:35:53.176Z,4.17
2017-08-30T09:38:19.812Z,5.20
2017-08-30T09:40:46.422Z,4.80
2017-08-30T09:43:13.088Z,4.37
2017-08-30T09:45:39.727Z,4.30
2017-08-30T09:48:06.157Z,5.10
2017-08-30T09:50:32.917Z,5.70
2017-08-30T09:52:59.609Z,4.77
2017-08-30T09:55:26.127Z,4.07
2017-08-30T09:57:52.893Z,3.33
2017-08-30T10:00:19.413Z,3.63
2017-08-30T10:02:45.783Z,4.23
2017-08-30T10:05:12.214Z,3.73
2017-08-30T10:07:38.836Z,3.60
2017-08-30T10:10:05.287Z,4.07
2017-08-30T10:12:31.927Z,3.60
2017-08-30T10:14:58.564Z,3.33
2017-08-30T10:17:25.185Z,3.40
2017-08-30T10:19:51.701Z,3.87
2017-08-30T10:22:18.467Z,3.20
2017-08-30T10:24:44.961Z,3.20
2017-08-30T10:27:11.631Z,3.87
2017-08-30T10:29:38.393Z,3.57
2017-08-30T10:32:04.824Z,3.83
2017-08-30T10:34:31.670Z,4.20
2017-08-30T10:36:58.148Z,4.07
2017-08-30T10:39:24.914Z,3.00
2017-08-30T10:41:51.556Z,4.03
2017-08-30T10:44:18.077Z,3.47
2017-08-30T10:46:44.860Z,4.07
2017-08-30T10:49:11.703Z,3.50
2017-08-30T10:51:38.138Z,3.73
2017-08-30T10:54:04.766Z,4.07
2017-08-30T10:56:31.410Z,3.57
2017-08-30T10:58:57.928Z,4.00
2017-08-30T11:01:24.686Z,4.50
2017-08-30T11:03:51.529Z,3.87
2017-08-30T11:06:18.154Z,3.23
2017-08-30T11:08:44.676Z,3.80
2017-08-30T11:11:11.413Z,3.73
2017-08-30T11:13:37.880Z,4.10
2017-08-30T11:16:04.300Z,5.27
2017-08-30T11:18:30.889Z,4.20
2017-08-30T11:20:57.559Z,5.30
2017-08-30T11:23:24.232Z,4.77
2017-08-30T11:25:50.864Z,4.70
2017-08-30T11:28:17.485Z,4.20
2017-08-30T11:30:43.981Z,4.50
2017-08-30T11:33:10.745Z,3.47
2017-08-30T11:35:37.265Z,4.13
2017-08-30T11:38:04.029Z,3.73
2017-08-30T11:40:30.648Z,3.90
2017-08-30T11:42:57.330Z,4.10
2017-08-30T11:45:23.972Z,3.83
2017-08-30T11:47:50.478Z,3.47
2017-08-30T11:50:16.993Z,4.00
2017-08-30T11:52:43.677Z,4.80
2017-08-30T11:55:10.280Z,4.47
2017-08-30T11:57:36.944Z,4.37
2017-08-30T12:00:03.596Z,5.10
2017-08-30T12:02:30.230Z,5.17
2017-08-30T12:04:56.845Z,5.07
2017-08-30T12:07:23.507Z,5.57
2017-08-30T12:09:49.953Z,4.83
2017-08-30T12:12:16.364Z,4.73
2017-08-30T12:14:42.796Z,4.30
2017-08-30T12:17:09.383Z,5.23
2017-08-30T12:19:36.075Z,4.00
2017-08-30T12:22:02.721Z,4.07
2017-08-30T12:24:29.463Z,4.20
2017-08-30T12:26:56.203Z,3.50
2017-08-30T12:29:22.841Z,3.43
2017-08-30T12:31:49.662Z,3.70
2017-08-30T12:34:16.253Z,3.80
2017-08-30T12:36:42.755Z,4.03
2017-08-30T12:39:09.200Z,3.83
2017-08-30T12:41:35.604Z,4.37
2017-08-30T12:44:01.979Z,4.43
2017-08-30T12:46:28.424Z,4.27
2017-08-30T12:48:54.824Z,3.60
2017-08-30T12:51:21.224Z,3.08
2017-08-30T12:53:47.661Z,3.15
2017-08-30T12:56:14.053Z,4.30
2017-08-30T12:58:40.436Z,4.00
2017-08-30T13:01:06.888Z,3.50
2017-08-30T13:03:33.269Z,3.97
2017-08-30T13:05:59.639Z,3.90
2017-08-30T13:08:26.069Z,4.90
2017-08-30T13:10:52.459Z,3.97
2017-08-30T13:13:18.847Z,3.90
2017-08-30T13:15:45.286Z,3.30
2017-08-30T13:18:11.665Z,4.27
2017-08-30T13:20:37.980Z,3.40
2017-08-30T13:23:04.341Z,4.27
2017-08-30T13:25:30.646Z,4.63
2017-08-30T13:27:56.980Z,4.33
2017-08-30T13:30:23.365Z,4.40
2017-08-30T13:32:49.698Z,4.73
2017-08-30T13:35:16.085Z,5.40
2017-08-30T13:37:42.444Z,5.33
2017-08-30T13:40:08.769Z,6.47
2017-08-30T13:45:07.958Z,4.40
2017-08-30T13:47:34.644Z,3.87
2017-08-30T13:50:01.267Z,4.47
2017-08-30T13:52:27.718Z,4.40
2017-08-30T13:54:54.338Z,5.00
2017-08-30T13:57:20.848Z,3.97
2017-08-30T13:59:47.411Z,3.90
2017-08-30T14:02:14.062Z,4.63
2017-08-30T14:04:40.698Z,4.60
2017-08-30T14:07:07.287Z,4.63
2017-08-30T14:09:33.979Z,5.40
2017-08-30T14:12:00.618Z,8.60
2017-08-30T14:14:27.208Z,4.50
2017-08-30T14:16:53.880Z,6.13
2017-08-30T14:19:20.380Z,5.30
2017-08-30T14:21:46.915Z,4.70
2017-08-30T14:24:13.376Z,5.00
2017-08-30T14:26:39.833Z,4.27
2017-08-30T14:29:06.416Z,4.80
2017-08-30T14:31:33.106Z,4.50
2017-08-30T14:33:59.726Z,4.53
2017-08-30T14:36:26.169Z,5.70
2017-08-30T14:38:52.812Z,4.30
2017-08-30T14:41:19.305Z,4.23
2017-08-30T14:43:45.888Z,4.80
2017-08-30T14:46:12.527Z,4.37
2017-08-30T14:48:38.958Z,5.20
2017-08-30T14:51:05.598Z,4.70
2017-08-30T14:53:32.215Z,5.20
2017-08-30T14:55:58.673Z,4.57
2017-08-30T14:58:25.273Z,4.83
2017-08-30T15:00:51.945Z,5.10
2017-08-30T15:03:18.557Z,5.60
2017-08-30T15:05:44.919Z,5.17
2017-08-30T15:08:11.451Z,4.13
2017-08-30T15:10:37.876Z,4.27
2017-08-30T15:13:04.319Z,5.53
2017-08-30T15:15:30.956Z,4.67
2017-08-30T15:17:57.588Z,3.83
2017-08-30T15:20:24.178Z,4.53
2017-08-30T15:22:50.821Z,5.10
2017-08-30T15:25:17.508Z,4.83
2017-08-30T15:27:44.128Z,4.60
2017-08-30T15:30:10.783Z,4.83
2017-08-30T15:32:37.268Z,4.87
2017-08-30T15:35:03.826Z,5.10
2017-08-30T15:37:30.476Z,5.53
2017-08-30T15:39:57.127Z,4.50
2017-08-30T15:42:23.655Z,5.57
2017-08-30T15:44:49.940Z,4.77
2017-08-30T15:47:16.518Z,4.27
2017-08-30T15:49:42.845Z,4.80
2017-08-30T15:52:09.276Z,4.50
2017-08-30T15:54:35.930Z,5.63
2017-08-30T15:57:02.369Z,5.10
2017-08-30T15:59:28.663Z,5.57
2017-08-30T16:01:55.120Z,5.20
2017-08-30T16:04:21.454Z,4.77
2017-08-30T16:06:47.887Z,4.40
2017-08-30T16:09:14.522Z,4.90
2017-08-30T16:11:40.963Z,5.87
2017-08-30T16:14:07.400Z,5.10
2017-08-30T16:16:33.823Z,4.63
2017-08-30T16:19:00.259Z,5.03
2017-08-30T16:21:26.879Z,7.10
2017-08-30T16:23:53.342Z,13.37
2017-08-30T16:26:19.965Z,9.63
2017-08-30T16:28:46.616Z,12.13
2017-08-30T16:31:13.348Z,7.37
2017-08-30T16:33:39.788Z,5.87
2017-08-30T16:36:06.074Z,4.73
2017-08-30T16:38:32.413Z,5.47
2017-08-30T16:40:58.871Z,5.37
2017-08-30T16:43:25.178Z,15.20
2017-08-30T16:45:51.515Z,12.47
2017-08-30T16:48:17.816Z,6.63
2017-08-30T16:50:44.162Z,9.40
2017-08-30T16:53:10.529Z,8.33
2017-08-30T16:55:36.844Z,7.10
2017-08-30T16:58:03.148Z,10.23
2017-08-30T17:00:29.522Z,6.70
2017-08-30T17:02:55.832Z,9.37
2017-08-30T17:05:22.122Z,6.67
2017-08-30T17:07:48.468Z,9.73
2017-08-30T17:10:14.756Z,7.90
2017-08-30T17:12:41.053Z,6.90
2017-08-30T17:15:07.415Z,7.60
2017-08-30T17:17:33.712Z,7.60
2017-08-30T17:19:59.997Z,7.10
2017-08-30T17:22:26.342Z,7.03
2017-08-30T17:24:52.637Z,6.37
2017-08-30T17:27:18.929Z,7.97
2017-08-30T17:29:45.300Z,6.60
2017-08-30T17:32:11.608Z,7.10
2017-08-30T17:34:37.952Z,7.17
2017-08-30T17:37:04.302Z,8.07
2017-08-30T17:39:30.601Z,8.03
2017-08-30T17:41:56.928Z,6.90
2017-08-30T17:44:23.288Z,6.43
2017-08-30T17:46:49.604Z,8.33
2017-08-30T17:49:15.912Z,7.03
2017-08-30T17:51:42.271Z,7.40
2017-08-30T17:54:08.576Z,6.53
2017-08-30T17:56:34.889Z,8.00
2017-08-30T17:59:01.269Z,7.93
2017-08-30T18:01:27.562Z,7.97
2017-08-30T18:03:53.859Z,7.40
2017-08-30T18:06:20.211Z,9.30
2017-08-30T18:08:46.523Z,7.60
2017-08-30T18:11:12.828Z,6.53
2017-08-30T18:13:39.181Z,7.40
2017-08-30T18:16:05.467Z,7.20
2017-08-30T18:18:31.754Z,8.73
2017-08-30T18:20:58.107Z,9.27
2017-08-30T18:23:24.399Z,7.77
2017-08-30T18:25:50.689Z,8.40
2017-08-30T18:28:17.048Z,6.77
2017-08-30T18:30:43.345Z,8.00
2017-08-30T18:33:09.642Z,8.43
2017-08-30T18:35:35.992Z,8.17
2017-08-30T18:38:02.284Z,8.83
2017-08-30T18:40:28.574Z,7.80
2017-08-30T18:42:54.936Z,7.60
2017-08-30T18:45:21.238Z,8.67
2017-08-30T18:47:47.548Z,10.20
2017-08-30T18:50:13.877Z,9.37
2017-08-30T18:52:40.167Z,7.93
2017-08-30T18:55:06.437Z,9.70
2017-08-30T18:57:32.803Z,8.00
2017-08-30T18:59:59.088Z,8.10
2017-08-30T19:02:25.391Z,9.70
2017-08-30T19:04:51.961Z,10.33
2017-08-30T19:07:18.253Z,9.40
2017-08-30T19:09:44.550Z,8.80
2017-08-30T19:12:11.158Z,9.13
2017-08-30T19:14:37.833Z,10.00
2017-08-30T19:17:04.270Z,9.83
2017-08-30T19:19:30.704Z,9.70
2017-08-30T19:21:56.993Z,9.50
2017-08-30T19:24:23.273Z,9.97
2017-08-30T19:26:49.608Z,8.97
2017-08-30T19:29:15.902Z,10.20
2017-08-30T19:31:42.185Z,9.47
2017-08-30T19:34:08.520Z,9.27
2017-08-30T19:36:34.832Z,10.57
2017-08-30T19:39:01.148Z,9.70
2017-08-30T19:41:27.485Z,10.50
2017-08-30T19:43:53.773Z,9.50
2017-08-30T19:46:20.070Z,9.97
2017-08-30T19:48:46.424Z,9.80
2017-08-30T19:51:12.711Z,11.10
2017-08-30T19:53:38.996Z,9.87
2017-08-30T19:56:05.334Z,9.90
2017-08-30T19:58:31.978Z,9.20
2017-08-30T20:00:58.437Z,8.00
2017-08-30T20:03:25.071Z,9.07
2017-08-30T20:05:51.502Z,9.87
2017-08-30T20:08:18.119Z,10.07
2017-08-30T20:10:44.644Z,9.80
2017-08-30T20:13:10.927Z,8.60
2017-08-30T20:15:37.353Z,9.60
2017-08-30T20:18:03.990Z,8.67
2017-08-30T20:20:30.418Z,9.10
2017-08-30T20:22:56.857Z,8.40
2017-08-30T20:25:23.288Z,8.90
2017-08-30T20:27:49.910Z,8.87
2017-08-30T20:30:16.213Z,9.40
2017-08-30T20:32:42.570Z,9.60
2017-08-30T20:35:08.852Z,11.27
2017-08-30T20:37:35.159Z,8.30
2017-08-30T20:40:01.506Z,9.60
2017-08-30T20:42:27.805Z,10.07
2017-08-30T20:44:54.093Z,8.97
2017-08-30T20:47:20.427Z,9.20
2017-08-30T20:49:46.729Z,9.43
2017-08-30T20:52:13.034Z,8.63
2017-08-30T20:54:39.391Z,11.43
2017-08-30T20:57:05.706Z,10.23
2017-08-30T20:59:31.995Z,9.63
2017-08-30T21:01:58.345Z,7.73
2017-08-30T21:04:24.789Z,8.33
2017-08-30T21:06:51.408Z,8.97
2017-08-30T21:09:17.856Z,9.17
2017-08-30T21:11:44.491Z,10.57
2017-08-30T21:14:10.946Z,11.10
2017-08-30T21:16:37.521Z,9.63
2017-08-30T21:19:04.002Z,9.70
2017-08-30T21:21:30.604Z,10.50
2017-08-30T21:23:57.065Z,10.70
2017-08-30T21:26:23.502Z,9.47
2017-08-30T21:28:50.133Z,10.13
2017-08-30T21:31:16.654Z,11.03
2017-08-30T21:33:43.009Z,12.57
2017-08-30T21:36:09.447Z,9.83
2017-08-30T21:38:36.087Z,9.77
2017-08-30T21:41:02.696Z,10.77
2017-08-30T21:43:29.360Z,8.97
2017-08-30T21:45:55.832Z,10.70
2017-08-30T21:48:22.225Z,9.40
2017-08-30T21:50:48.540Z,9.20
2017-08-30T21:53:15.298Z,10.53
2017-08-30T21:55:41.915Z,10.57
2017-08-30T21:58:08.367Z,9.37
2017-08-30T22:00:34.748Z,8.40
2017-08-30T22:03:01.240Z,10.30
2017-08-30T22:05:27.866Z,9.60
2017-08-30T22:07:54.456Z,10.30
2017-08-30T22:10:21.149Z,10.23
2017-08-30T22:12:47.571Z,9.53
2017-08-30T22:15:14.020Z,10.37
2017-08-30T22:17:40.451Z,9.93
2017-08-30T22:20:07.072Z,9.80
2017-08-30T22:22:33.509Z,10.57
2017-08-30T22:24:59.957Z,11.73
2017-08-30T22:27:26.446Z,11.07
2017-08-30T22:29:52.984Z,11.43
2017-08-30T22:32:19.467Z,9.03
2017-08-30T22:34:45.888Z,10.17
2017-08-30T22:37:12.319Z,11.47
2017-08-30T22:39:38.763Z,11.67
2017-08-30T22:42:05.196Z,10.60
2017-08-30T22:44:31.635Z,9.80
2017-08-30T22:46:58.267Z,9.30
2017-08-30T22:49:24.867Z,10.90
2017-08-30T22:51:51.388Z,9.93
2017-08-30T22:54:17.761Z,9.83
2017-08-30T22:56:44.411Z,10.10
2017-08-30T22:59:11.048Z,10.60
2017-08-30T23:01:37.491Z,11.27
2017-08-30T23:04:04.096Z,10.70
2017-08-30T23:06:30.711Z,9.97
2017-08-30T23:08:57.396Z,8.93
2017-08-30T23:11:23.898Z,9.93
2017-08-30T23:13:50.672Z,10.67
2017-08-30T23:16:17.162Z,10.30
2017-08-30T23:18:43.708Z,11.37
2017-08-30T23:21:10.236Z,10.27
2017-08-30T23:23:36.755Z,10.90
2017-08-30T23:26:03.451Z,9.60
2017-08-30T23:28:30.041Z,10.17
2017-08-30T23:30:56.729Z,10.80
2017-08-30T23:33:23.202Z,15.50
2017-08-30T23:35:49.765Z,13.10
2017-08-30T23:38:16.434Z,14.53
2017-08-30T23:40:43.076Z,11.33
2017-08-30T23:43:09.716Z,11.97
2017-08-30T23:45:36.001Z,10.57
2017-08-30T23:48:02.298Z,12.23
2017-08-30T23:50:28.806Z,13.10
2017-08-30T23:52:55.433Z,12.33
2017-08-30T23:55:21.735Z,11.60
2017-08-30T23:57:48.315Z,12.60
